Time;durP1;ratioP1;P1;durP2;ratioP2;P2;SDS_P1;SDS_P2;PMS_P1;PMS_P2;Temp;Humidity;BMP_temperature;BMP_pressure;BME280_temperature;BME280_humidity;BME280_pressure;Samples;Min_cycle;Max_cycle;Signal;HPM_P1;HPM_P2
2023/01/14 00:00:10;;;;;;;0.60;0.60;;;7.90;99.90;;;;;;5013775;28;20047;-86
2023/01/14 00:02:36;;;;;;;0.60;0.60;;;7.90;99.90;;;;;;5016023;27;20202;-85
2023/01/14 00:05:02;;;;;;;0.60;0.60;;;7.80;99.90;;;;;;5005513;28;20437;-86
2023/01/14 00:07:28;;;;;;;0.70;0.70;;;7.90;99.90;;;;;;5027174;28;20071;-85
2023/01/14 00:09:53;;;;;;;0.60;0.60;;;7.90;99.90;;;;;;5031394;28;20050;-87
2023/01/14 00:12:38;;;;;;;0.70;0.70;;;7.90;99.90;;;;;;5011366;28;20851;-87
2023/01/14 00:15:05;;;;;;;0.70;0.70;;;7.90;99.90;;;;;;5022278;28;20447;-85
2023/01/14 00:17:30;;;;;;;0.60;0.60;;;8.00;99.90;;;;;;5046803;28;20984;-85
2023/01/14 00:19:56;;;;;;;0.70;0.70;;;8.00;99.90;;;;;;5017383;28;20077;-85
2023/01/14 00:22:22;;;;;;;0.60;0.60;;;7.80;99.90;;;;;;5011669;27;20929;-86
2023/01/14 00:24:48;;;;;;;0.60;0.60;;;7.80;99.90;;;;;;5012814;27;20224;-85
2023/01/14 00:27:16;;;;;;;0.60;0.60;;;7.90;99.90;;;;;;5045281;27;20407;-86
2023/01/14 00:29:42;;;;;;;0.60;0.60;;;7.80;99.90;;;;;;5036921;27;20376;-86
2023/01/14 00:32:09;;;;;;;0.60;0.60;;;7.80;99.90;;;;;;4998843;27;20475;-86
2023/01/14 00:34:38;;;;;;;0.60;0.60;;;7.80;99.90;;;;;;5038432;27;20051;-85
2023/01/14 00:37:04;;;;;;;0.60;0.60;;;7.90;99.90;;;;;;5053158;27;20050;-86
2023/01/14 00:39:30;;;;;;;0.60;0.60;;;7.70;99.90;;;;;;5068979;27;20043;-85
2023/01/14 00:41:56;;;;;;;0.60;0.60;;;7.80;99.90;;;;;;5052787;27;20047;-85
2023/01/14 00:44:22;;;;;;;0.60;0.60;;;7.80;99.90;;;;;;5024992;27;20518;-85
2023/01/14 00:46:48;;;;;;;0.60;0.60;;;7.70;99.90;;;;;;5029654;27;20160;-85
2023/01/14 00:49:26;;;;;;;0.60;0.60;;;7.70;99.90;;;;;;5030635;27;20133;-86
2023/01/14 00:51:55;;;;;;;0.60;0.60;;;7.60;99.90;;;;;;5038905;27;20050;-86
2023/01/14 00:54:33;;;;;;;0.60;0.60;;;7.60;99.90;;;;;;5043458;27;20050;-86
2023/01/14 00:57:01;;;;;;;0.60;0.60;;;7.70;99.90;;;;;;5044843;27;20481;-85
2023/01/14 00:59:26;;;;;;;0.60;0.60;;;7.70;99.90;;;;;;5028533;27;20780;-86
2023/01/14 01:01:58;;;;;;;0.60;0.60;;;7.70;99.90;;;;;;5056059;27;20038;-86
2023/01/14 01:04:24;;;;;;;0.60;0.60;;;7.80;99.90;;;;;;5018034;27;20375;-87
2023/01/14 01:06:51;;;;;;;0.60;0.60;;;7.70;99.90;;;;;;5020345;27;20399;-85
2023/01/14 01:09:16;;;;;;;0.60;0.60;;;7.90;99.90;;;;;;5007382;27;20992;-86
2023/01/14 01:11:42;;;;;;;0.63;0.63;;;7.90;99.90;;;;;;5026397;27;20078;-86
2023/01/14 01:14:12;;;;;;;0.60;0.60;;;7.90;99.90;;;;;;5031342;27;20074;-86
2023/01/14 01:16:38;;;;;;;0.60;0.60;;;7.90;99.90;;;;;;5051450;27;20063;-86
2023/01/14 01:19:06;;;;;;;0.70;0.70;;;7.90;99.90;;;;;;5019654;27;20423;-86
2023/01/14 01:21:38;;;;;;;0.60;0.60;;;7.80;99.90;;;;;;5046830;27;20043;-86
2023/01/14 01:24:04;;;;;;;0.60;0.60;;;7.90;99.90;;;;;;5023163;27;20061;-90
2023/01/14 01:26:35;;;;;;;0.60;0.60;;;7.80;99.90;;;;;;5035801;27;20066;-87
2023/01/14 01:29:04;;;;;;;0.60;0.60;;;7.80;99.90;;;;;;5021470;27;20492;-87
2023/01/14 01:31:30;;;;;;;0.70;0.70;;;7.90;99.90;;;;;;5020733;27;20183;-86
2023/01/14 01:33:56;;;;;;;0.60;0.60;;;7.90;99.90;;;;;;5014768;27;20291;-87
2023/01/14 01:36:25;;;;;;;0.60;0.60;;;7.90;99.90;;;;;;5012860;27;20040;-85
2023/01/14 01:38:51;;;;;;;0.60;0.60;;;7.90;99.90;;;;;;5035859;27;20054;-85
2023/01/14 01:41:20;;;;;;;0.60;0.60;;;7.90;99.90;;;;;;5037512;27;20462;-85
2023/01/14 01:44:02;;;;;;;0.70;0.70;;;7.90;99.90;;;;;;5019518;27;20532;-85
2023/01/14 01:46:29;;;;;;;0.60;0.60;;;7.90;99.90;;;;;;5033804;27;20500;-86
2023/01/14 01:49:00;;;;;;;0.60;0.60;;;7.80;99.90;;;;;;5042116;27;20453;-86
2023/01/14 01:51:33;;;;;;;0.60;0.60;;;7.80;99.90;;;;;;5034015;27;20108;-85
2023/01/14 01:54:00;;;;;;;0.60;0.60;;;7.70;99.90;;;;;;5019991;27;20047;-86
2023/01/14 01:56:31;;;;;;;0.60;0.60;;;7.70;99.90;;;;;;5018256;27;20046;-86
2023/01/14 01:58:57;;;;;;;0.60;0.60;;;7.80;99.90;;;;;;5038945;27;20394;-86
2023/01/14 02:01:24;;;;;;;0.60;0.60;;;7.80;99.90;;;;;;5021238;27;20614;-86
2023/01/14 02:03:51;;;;;;;0.60;0.60;;;7.80;99.90;;;;;;5019200;27;20376;-86
2023/01/14 02:06:17;;;;;;;0.60;0.60;;;7.80;99.90;;;;;;5035679;27;20055;-86
2023/01/14 02:08:52;;;;;;;0.60;0.60;;;7.90;99.90;;;;;;5036277;27;20048;-86
2023/01/14 02:11:49;;;;;;;0.60;0.60;;;7.80;99.90;;;;;;5030237;27;20047;-86
2023/01/14 02:14:27;;;;;;;0.60;0.60;;;7.80;99.90;;;;;;5016953;27;22289;-86
2023/01/14 02:16:59;;;;;;;0.60;0.60;;;7.80;99.90;;;;;;5027483;27;20047;-86
2023/01/14 02:19:51;;;;;;;0.60;0.60;;;7.90;99.90;;;;;;5016914;27;20155;-86
2023/01/14 02:22:17;;;;;;;0.60;0.60;;;7.80;99.90;;;;;;5010303;27;20276;-86
2023/01/14 02:25:10;;;;;;;0.60;0.60;;;7.80;99.90;;;;;;5016610;27;20524;-85
2023/01/14 02:27:38;;;;;;;0.60;0.60;;;7.80;99.90;;;;;;5017494;27;20032;-86
2023/01/14 02:30:36;;;;;;;0.60;0.60;;;7.70;99.90;;;;;;5035533;27;20054;-86
2023/01/14 02:33:28;;;;;;;0.60;0.60;;;7.70;99.90;;;;;;5029338;27;20419;-87
2023/01/14 02:36:19;;;;;;;0.60;0.60;;;7.80;99.90;;;;;;5037879;27;20047;-86
2023/01/14 02:39:11;;;;;;;0.60;0.60;;;7.70;99.90;;;;;;4998470;27;20062;-85
2023/01/14 02:44:39;;;;;;;0.60;0.60;;;7.70;99.90;;;;;;5012595;27;20043;-85
2023/01/14 02:47:10;;;;;;;0.60;0.60;;;7.60;99.90;;;;;;5014800;27;20145;-86
2023/01/14 02:49:41;;;;;;;0.60;0.60;;;7.60;99.90;;;;;;5032768;27;20099;-86
2023/01/14 02:52:07;;;;;;;0.60;0.60;;;7.60;99.90;;;;;;5019600;27;20054;-84
2023/01/14 02:54:33;;;;;;;0.60;0.60;;;7.60;99.90;;;;;;5011030;27;20150;-86
2023/01/14 02:57:16;;;;;;;0.60;0.60;;;7.70;99.90;;;;;;5041189;27;20291;-86
2023/01/14 02:59:55;;;;;;;0.60;0.60;;;7.70;99.90;;;;;;5019072;27;20689;-86
2023/01/14 03:02:43;;;;;;;0.60;0.60;;;7.60;99.90;;;;;;5022191;27;20043;-86
2023/01/14 03:05:14;;;;;;;0.60;0.60;;;7.60;99.90;;;;;;5033195;27;20669;-86
2023/01/14 03:08:28;;;;;;;0.60;0.60;;;7.60;99.90;;;;;;5031738;27;20135;-85
2023/01/14 03:11:06;;;;;;;0.60;0.60;;;7.50;99.90;;;;;;4970296;28;20076;-86
2023/01/14 03:14:18;;;;;;;0.60;0.60;;;7.50;99.90;;;;;;5014316;27;20457;-86
2023/01/14 03:16:54;;;;;;;0.60;0.60;;;7.50;99.90;;;;;;4975458;28;20048;-85
2023/01/14 03:19:23;;;;;;;0.60;0.60;;;7.50;99.90;;;;;;5036120;27;20800;-86
2023/01/14 03:21:53;;;;;;;0.60;0.60;;;7.50;99.90;;;;;;5043226;27;20055;-85
2023/01/14 03:24:32;;;;;;;0.60;0.60;;;7.40;99.90;;;;;;5040356;27;20055;-85
2023/01/14 03:27:04;;;;;;;0.60;0.60;;;7.40;99.90;;;;;;5042356;27;20573;-85
2023/01/14 03:29:44;;;;;;;0.60;0.60;;;7.20;99.90;;;;;;5033915;27;20039;-86
2023/01/14 03:32:32;;;;;;;0.60;0.60;;;7.20;99.90;;;;;;5027153;27;20042;-85
2023/01/14 03:35:06;;;;;;;0.60;0.60;;;7.10;99.90;;;;;;5050875;27;20578;-86
2023/01/14 03:37:33;;;;;;;0.60;0.60;;;7.00;99.90;;;;;;5037940;27;20590;-85
2023/01/14 03:40:03;;;;;;;0.60;0.60;;;7.00;99.90;;;;;;5039754;27;20051;-86
2023/01/14 03:42:53;;;;;;;0.60;0.60;;;6.80;99.90;;;;;;5041119;27;20087;-86
2023/01/14 03:45:29;;;;;;;0.60;0.60;;;6.90;99.90;;;;;;5036464;27;20047;-85
2023/01/14 03:47:56;;;;;;;0.60;0.60;;;6.90;99.90;;;;;;5025594;27;20049;-85
2023/01/14 03:50:27;;;;;;;0.60;0.60;;;6.90;99.90;;;;;;5037332;27;20118;-87
2023/01/14 03:53:27;;;;;;;0.60;0.60;;;6.90;99.90;;;;;;5036425;27;20338;-86
2023/01/14 03:56:02;;;;;;;0.60;0.60;;;6.80;99.90;;;;;;5029677;27;20440;-85
2023/01/14 03:58:55;;;;;;;0.60;0.60;;;6.80;99.90;;;;;;5025295;27;20043;-87
2023/01/14 04:01:42;;;;;;;0.70;0.70;;;6.80;99.90;;;;;;5013973;27;20356;-86
2023/01/14 04:04:10;;;;;;;0.60;0.60;;;7.00;99.90;;;;;;5021820;27;20162;-85
2023/01/14 04:06:36;;;;;;;0.60;0.60;;;6.80;99.90;;;;;;5041782;27;20890;-85
2023/01/14 04:09:08;;;;;;;0.60;0.60;;;6.80;99.90;;;;;;5035461;27;20057;-85
2023/01/14 04:11:34;;;;;;;0.60;0.60;;;6.80;99.90;;;;;;5044508;27;20113;-86
2023/01/14 04:16:44;;;;;;;0.60;0.60;;;6.80;99.90;;;;;;5035317;27;20050;-86
2023/01/14 04:19:10;;;;;;;0.60;0.60;;;6.80;99.90;;;;;;5026278;27;20174;-87
2023/01/14 04:21:36;;;;;;;0.60;0.60;;;6.70;99.90;;;;;;5034662;27;20039;-85
2023/01/14 04:24:02;;;;;;;0.60;0.60;;;6.80;99.90;;;;;;5035417;28;20083;-85
2023/01/14 04:26:28;;;;;;;0.60;0.60;;;6.80;99.90;;;;;;5000774;28;20051;-86
2023/01/14 04:28:56;;;;;;;0.60;0.60;;;6.80;99.90;;;;;;5017704;28;20075;-85
2023/01/14 04:31:22;;;;;;;0.60;0.60;;;6.80;99.90;;;;;;5041587;28;20504;-86
2023/01/14 04:33:48;;;;;;;0.60;0.60;;;6.70;99.90;;;;;;5036313;27;20049;-87
2023/01/14 04:36:14;;;;;;;0.60;0.60;;;6.70;99.90;;;;;;5018657;27;20527;-86
2023/01/14 04:38:40;;;;;;;0.60;0.60;;;6.60;99.90;;;;;;5041916;27;21160;-86
2023/01/14 04:41:06;;;;;;;0.60;0.60;;;6.70;99.90;;;;;;5020379;28;20051;-86
2023/01/14 04:43:31;;;;;;;0.60;0.60;;;6.60;99.90;;;;;;5032442;27;20039;-86
2023/01/14 04:45:57;;;;;;;0.60;0.60;;;6.70;99.90;;;;;;4999629;27;20049;-86
2023/01/14 04:48:24;;;;;;;0.60;0.60;;;6.50;99.90;;;;;;5010414;27;20664;-87
2023/01/14 04:50:51;;;;;;;0.60;0.60;;;6.60;99.90;;;;;;5022146;27;20043;-87
2023/01/14 04:53:23;;;;;;;0.60;0.60;;;6.50;99.90;;;;;;5036240;27;20046;-87
2023/01/14 04:55:55;;;;;;;0.60;0.60;;;6.50;99.90;;;;;;5038652;27;20528;-86
2023/01/14 04:58:21;;;;;;;0.63;0.63;;;6.50;99.90;;;;;;5016949;27;20508;-86
2023/01/14 05:00:51;;;;;;;0.60;0.60;;;6.50;99.90;;;;;;5044444;27;20053;-86
2023/01/14 05:03:21;;;;;;;0.60;0.60;;;6.60;99.90;;;;;;5022732;27;20485;-86
2023/01/14 05:05:46;;;;;;;0.60;0.60;;;6.50;99.90;;;;;;5034146;27;20944;-86
2023/01/14 05:08:13;;;;;;;0.60;0.60;;;6.50;99.90;;;;;;5021715;27;20062;-85
2023/01/14 05:10:39;;;;;;;0.60;0.60;;;6.50;99.90;;;;;;5041661;27;20066;-87
2023/01/14 05:13:07;;;;;;;0.70;0.70;;;6.50;99.90;;;;;;5013688;27;20301;-87
2023/01/14 05:15:41;;;;;;;0.70;0.70;;;6.50;99.90;;;;;;5024216;27;20270;-85
2023/01/14 05:18:07;;;;;;;;;;;6.50;99.90;;;;;;5050377;27;20054;-86
2023/01/14 05:20:33;;;;;;;0.60;0.60;;;6.40;99.90;;;;;;5022680;27;19923;-85
2023/01/14 05:23:02;;;;;;;0.60;0.60;;;6.50;99.90;;;;;;5024188;27;20562;-87
2023/01/14 05:25:29;;;;;;;0.70;0.70;;;6.30;99.90;;;;;;5024879;27;20516;-85
2023/01/14 05:28:19;;;;;;;0.70;0.70;;;6.40;99.90;;;;;;5015935;27;20138;-86
2023/01/14 05:30:45;;;;;;;0.68;0.68;;;6.40;99.90;;;;;;5014652;27;20563;-86
2023/01/14 05:33:12;;;;;;;0.60;0.60;;;6.40;99.90;;;;;;5030811;27;20047;-86
2023/01/14 05:35:38;;;;;;;0.70;0.70;;;6.40;99.90;;;;;;5027295;27;20051;-87
2023/01/14 05:38:06;;;;;;;0.60;0.60;;;6.40;99.90;;;;;;5018238;27;20439;-87
2023/01/14 05:40:32;;;;;;;0.60;0.60;;;6.30;99.90;;;;;;5018842;27;20074;-86
2023/01/14 05:45:48;;;;;;;0.80;0.80;;;6.40;99.90;;;;;;5041360;27;21862;-84
2023/01/14 05:48:19;;;;;;;0.60;0.60;;;6.30;99.90;;;;;;5016942;27;20559;-86
2023/01/14 05:50:45;;;;;;;0.60;0.60;;;6.30;99.90;;;;;;5038395;27;20506;-87
2023/01/14 05:53:11;;;;;;;0.60;0.60;;;6.40;99.90;;;;;;5044382;27;20546;-86
2023/01/14 05:55:44;;;;;;;0.60;0.60;;;6.30;99.90;;;;;;5020905;27;20550;-86
2023/01/14 05:58:10;;;;;;;0.60;0.60;;;6.40;99.90;;;;;;5018300;27;20051;-85
2023/01/14 06:06:36;;;;;;;0.60;0.60;;;6.30;99.90;;;;;;5032738;27;20047;-86
2023/01/14 06:09:12;;;;;;;0.60;0.60;;;6.30;99.90;;;;;;5043578;27;20587;-86
2023/01/14 06:14:23;;;;;;;0.60;0.60;;;6.40;99.90;;;;;;5033013;27;20739;-86
2023/01/14 06:16:51;;;;;;;0.60;0.60;;;6.40;99.90;;;;;;5043577;27;20067;-85
2023/01/14 06:19:17;;;;;;;0.70;0.70;;;6.40;99.90;;;;;;5015274;27;20047;-86
2023/01/14 06:21:43;;;;;;;0.70;0.70;;;6.40;99.90;;;;;;5035898;27;20039;-86
2023/01/14 06:24:11;;;;;;;0.60;0.60;;;6.40;99.90;;;;;;5029542;27;20968;-86
2023/01/14 06:26:37;;;;;;;0.60;0.60;;;6.30;99.90;;;;;;5048511;27;20110;-86
2023/01/14 06:29:06;;;;;;;0.68;0.68;;;6.40;99.90;;;;;;5023636;27;20434;-86
2023/01/14 06:31:32;;;;;;;0.63;0.63;;;6.20;99.90;;;;;;5016985;27;20098;-86
2023/01/14 06:34:01;;;;;;;0.70;0.70;;;6.40;99.90;;;;;;5017404;27;20055;-85
2023/01/14 06:36:28;;;;;;;0.60;0.60;;;6.30;99.90;;;;;;5044947;27;20611;-86
2023/01/14 06:38:54;;;;;;;0.60;0.60;;;6.30;99.90;;;;;;5014819;27;20084;-86
2023/01/14 06:41:20;;;;;;;0.60;0.60;;;6.50;99.90;;;;;;5023234;27;20082;-87
2023/01/14 06:43:46;;;;;;;0.70;0.70;;;6.30;99.90;;;;;;5039670;27;20043;-86
2023/01/14 06:46:20;;;;;;;0.70;0.70;;;6.40;99.90;;;;;;5025657;27;20037;-86
2023/01/14 06:48:46;;;;;;;0.70;0.70;;;6.40;99.90;;;;;;5018530;27;20039;-86
2023/01/14 06:51:17;;;;;;;0.70;0.70;;;6.50;99.90;;;;;;5015805;27;20843;-85
2023/01/14 06:53:43;;;;;;;0.70;0.70;;;6.50;99.90;;;;;;5031618;27;20058;-86
2023/01/14 06:56:22;;;;;;;0.70;0.70;;;6.60;99.90;;;;;;5030013;27;20062;-87
2023/01/14 06:58:48;;;;;;;0.68;0.68;;;6.70;99.90;;;;;;5039389;27;20071;-86
2023/01/14 07:01:14;;;;;;;0.60;0.60;;;6.70;99.90;;;;;;5043190;27;20043;-85
2023/01/14 07:03:40;;;;;;;0.70;0.70;;;6.60;99.90;;;;;;5027019;27;20039;-86
2023/01/14 07:06:07;;;;;;;0.60;0.60;;;6.60;99.90;;;;;;5015362;27;20044;-86
2023/01/14 07:08:33;;;;;;;0.60;0.60;;;6.70;99.90;;;;;;5039404;27;20047;-86
2023/01/14 07:10:59;;;;;;;0.70;0.70;;;6.70;99.90;;;;;;5040299;27;20061;-86
2023/01/14 07:13:27;;;;;;;0.60;0.60;;;6.70;99.90;;;;;;5017033;27;20535;-86
2023/01/14 07:15:53;;;;;;;0.60;0.60;;;6.70;99.90;;;;;;5021008;27;20048;-85
2023/01/14 07:18:19;;;;;;;0.68;0.68;;;6.80;99.90;;;;;;5021399;27;20254;-85
2023/01/14 07:20:45;;;;;;;0.68;0.68;;;6.80;99.90;;;;;;5018653;27;20055;-86
2023/01/14 07:23:11;;;;;;;0.60;0.60;;;6.80;99.90;;;;;;5028964;27;20063;-85
2023/01/14 07:25:39;;;;;;;0.60;0.60;;;6.80;99.90;;;;;;5041067;27;20521;-85
2023/01/14 07:28:05;;;;;;;0.60;0.60;;;6.80;99.90;;;;;;5021304;27;20076;-85
2023/01/14 07:30:31;;;;;;;0.70;0.70;;;6.90;99.90;;;;;;5042871;27;20547;-86
2023/01/14 07:33:00;;;;;;;0.60;0.60;;;6.90;99.90;;;;;;5041875;27;20044;-86
2023/01/14 07:35:30;;;;;;;0.60;0.60;;;6.90;99.90;;;;;;5045078;27;20509;-85
2023/01/14 07:37:57;;;;;;;0.70;0.70;;;6.90;99.90;;;;;;5038460;27;20263;-87
2023/01/14 07:40:24;;;;;;;0.70;0.70;;;6.90;99.90;;;;;;5042226;27;20913;-86
2023/01/14 07:42:55;;;;;;;0.60;0.60;;;6.90;99.90;;;;;;5017432;27;20781;-84
2023/01/14 07:45:20;;;;;;;0.70;0.70;;;7.00;99.90;;;;;;5043404;27;20455;-85
2023/01/14 07:47:49;;;;;;;0.60;0.60;;;7.00;99.90;;;;;;5032300;27;20876;-87
2023/01/14 07:50:17;;;;;;;0.60;0.60;;;6.90;99.90;;;;;;5033313;27;20043;-85
2023/01/14 07:52:42;;;;;;;0.60;0.60;;;7.00;99.90;;;;;;5041497;27;20738;-85
2023/01/14 07:55:08;;;;;;;0.60;0.60;;;7.10;99.90;;;;;;5043325;28;20039;-84
2023/01/14 07:57:34;;;;;;;0.60;0.60;;;7.00;99.90;;;;;;5040513;27;20050;-84
2023/01/14 08:00:11;;;;;;;0.70;0.70;;;7.10;99.90;;;;;;5044248;27;20068;-84
2023/01/14 08:02:37;;;;;;;0.60;0.60;;;7.10;99.90;;;;;;5040786;28;20484;-84
2023/01/14 08:05:05;;;;;;;0.65;0.65;;;7.10;99.90;;;;;;5047483;27;20192;-85
2023/01/14 08:07:32;;;;;;;0.60;0.60;;;7.10;99.90;;;;;;5029792;27;20535;-86
2023/01/14 08:09:57;;;;;;;0.60;0.60;;;7.10;99.90;;;;;;5027889;28;20094;-84
2023/01/14 08:12:23;;;;;;;0.60;0.60;;;7.20;99.90;;;;;;5043427;28;20904;-85
2023/01/14 08:14:49;;;;;;;0.60;0.60;;;7.20;99.90;;;;;;5045242;28;20062;-86
2023/01/14 08:17:17;;;;;;;0.60;0.60;;;7.20;99.90;;;;;;5047075;28;20043;-87
2023/01/14 08:19:43;;;;;;;0.65;0.65;;;7.20;99.90;;;;;;5014316;28;20047;-84
2023/01/14 08:22:09;;;;;;;0.60;0.60;;;7.20;99.90;;;;;;5020822;28;20209;-85
2023/01/14 08:24:35;;;;;;;0.60;0.60;;;7.20;99.90;;;;;;5040465;28;20171;-85
2023/01/14 08:27:01;;;;;;;0.60;0.60;;;7.10;99.90;;;;;;5041899;28;20963;-85
2023/01/14 08:29:29;;;;;;;0.60;0.60;;;7.20;99.90;;;;;;5023037;28;20044;-84
2023/01/14 08:31:55;;;;;;;0.60;0.60;;;7.10;99.90;;;;;;5006695;28;20035;-86
2023/01/14 08:34:22;;;;;;;0.60;0.60;;;7.20;99.90;;;;;;5005595;28;20063;-84
2023/01/14 08:36:51;;;;;;;0.60;0.60;;;7.10;99.90;;;;;;5018819;28;21153;-85
2023/01/14 08:39:17;;;;;;;0.60;0.60;;;7.20;99.90;;;;;;5043291;28;20108;-84
2023/01/14 08:41:43;;;;;;;0.60;0.60;;;7.10;99.90;;;;;;5048126;28;20051;-85
2023/01/14 08:44:10;;;;;;;0.60;0.60;;;7.20;99.90;;;;;;5031556;28;20742;-85
2023/01/14 08:46:37;;;;;;;0.70;0.70;;;7.20;99.90;;;;;;5027431;28;20146;-86
2023/01/14 08:49:04;;;;;;;0.68;0.68;;;7.10;99.90;;;;;;5015581;28;20582;-87
2023/01/14 08:51:30;;;;;;;0.60;0.60;;;7.20;99.90;;;;;;5012856;28;20051;-87
2023/01/14 08:53:58;;;;;;;0.60;0.60;;;7.10;99.90;;;;;;5036701;28;20055;-88
2023/01/14 08:56:24;;;;;;;0.60;0.60;;;7.20;99.90;;;;;;5043091;28;20664;-86
2023/01/14 08:58:52;;;;;;;0.60;0.60;;;7.10;99.90;;;;;;5023600;28;20047;-86
2023/01/14 09:01:18;;;;;;;0.60;0.60;;;7.30;99.90;;;;;;5023033;28;20393;-86
2023/01/14 09:03:45;;;;;;;0.70;0.70;;;7.20;99.90;;;;;;5005396;28;20043;-86
2023/01/14 09:06:14;;;;;;;0.70;0.70;;;7.20;99.90;;;;;;5004208;28;20592;-86
2023/01/14 09:17:06;;;;;;;0.60;0.60;;;7.20;99.90;;;;;;5040356;28;20874;-88
2023/01/14 09:19:54;;;;;;;0.70;0.70;;;7.40;99.90;;;;;;5035858;27;20549;-87
2023/01/14 09:22:26;;;;;;;0.60;0.60;;;7.30;99.90;;;;;;5044327;27;20095;-86
2023/01/14 09:24:52;;;;;;;0.60;0.60;;;7.40;99.90;;;;;;5045558;27;20247;-86
2023/01/14 09:27:25;;;;;;;0.70;0.70;;;7.30;99.90;;;;;;5048999;27;20517;-89
2023/01/14 09:29:51;;;;;;;0.70;0.70;;;7.40;99.90;;;;;;5040974;27;20377;-86
2023/01/14 09:32:17;;;;;;;0.60;0.60;;;7.40;99.90;;;;;;5057464;27;20072;-87
2023/01/14 09:34:50;;;;;;;0.60;0.60;;;7.40;99.90;;;;;;5031891;27;20709;-88
2023/01/14 09:37:21;;;;;;;0.60;0.60;;;7.50;99.90;;;;;;5057799;27;20711;-88
2023/01/14 09:39:50;;;;;;;0.60;0.60;;;7.50;99.90;;;;;;5034019;27;20102;-87
2023/01/14 09:42:28;;;;;;;0.70;0.70;;;7.50;99.90;;;;;;5050034;27;20137;-88
2023/01/14 09:45:10;;;;;;;0.60;0.60;;;7.50;99.90;;;;;;5038736;27;20142;-87
2023/01/14 09:47:36;;;;;;;0.60;0.60;;;7.50;99.90;;;;;;5026777;27;20582;-87
2023/01/14 09:50:07;;;;;;;0.60;0.60;;;7.50;99.90;;;;;;5048900;27;20051;-88
2023/01/14 09:53:22;;;;;;;0.60;0.60;;;7.60;99.90;;;;;;5033128;27;20035;-86
2023/01/14 09:56:39;;;;;;;0.68;0.68;;;7.60;99.90;;;;;;5031065;27;20053;-89
2023/01/14 09:59:19;;;;;;;0.60;0.60;;;7.70;99.90;;;;;;5038106;27;20915;-88
2023/01/14 10:02:09;;;;;;;0.70;0.70;;;7.60;99.90;;;;;;5033594;27;20061;-86
2023/01/14 10:05:15;;;;;;;0.60;0.60;;;7.70;99.90;;;;;;5031800;27;20103;-87
2023/01/14 10:07:42;;;;;;;0.63;0.63;;;7.80;99.90;;;;;;5037669;27;20817;-89
2023/01/14 10:10:30;;;;;;;0.60;0.60;;;7.60;99.90;;;;;;5027369;27;20046;-89
2023/01/14 10:13:04;;;;;;;0.60;0.60;;;7.70;99.90;;;;;;5028264;27;20051;-86
2023/01/14 10:16:08;;;;;;;0.60;0.60;;;7.70;99.90;;;;;;5027351;27;20049;-86
2023/01/14 10:18:38;;;;;;;0.60;0.60;;;7.80;99.90;;;;;;5038428;27;20363;-87
2023/01/14 10:21:30;;;;;;;0.60;0.60;;;7.80;99.90;;;;;;5051541;27;20039;-87
2023/01/14 10:23:57;;;;;;;0.60;0.60;;;7.80;99.90;;;;;;4971610;27;21112;-87
2023/01/14 10:26:32;;;;;;;0.70;0.70;;;7.70;99.90;;;;;;5035076;27;20043;-86
2023/01/14 10:29:03;;;;;;;0.60;0.60;;;7.80;99.90;;;;;;5047075;27;20960;-87
2023/01/14 10:31:32;;;;;;;0.60;0.60;;;7.70;99.90;;;;;;5039269;27;20574;-88
2023/01/14 10:33:59;;;;;;;0.60;0.60;;;7.80;99.90;;;;;;5051551;27;20204;-86
2023/01/14 10:36:29;;;;;;;0.60;0.60;;;7.80;99.90;;;;;;5050851;27;20201;-88
2023/01/14 10:38:56;;;;;;;0.60;0.60;;;7.90;99.90;;;;;;5047684;27;20054;-87
2023/01/14 10:44:35;;;;;;;0.60;0.60;;;8.00;99.90;;;;;;5051267;27;20045;-88
2023/01/14 10:47:24;;;;;;;0.60;0.60;;;8.00;99.90;;;;;;5034271;27;20126;-89
2023/01/14 10:49:55;;;;;;;0.60;0.60;;;7.90;99.90;;;;;;5036556;27;20043;-87
2023/01/14 10:52:20;;;;;;;0.60;0.60;;;7.90;99.90;;;;;;5051224;27;20042;-86
2023/01/14 10:54:58;;;;;;;0.60;0.60;;;8.00;99.90;;;;;;5032589;27;20053;-89
2023/01/14 10:57:26;;;;;;;0.60;0.60;;;8.00;99.90;;;;;;5052790;27;20527;-86
2023/01/14 10:59:54;;;;;;;0.60;0.60;;;8.20;99.90;;;;;;5032909;27;20034;-86
2023/01/14 11:02:26;;;;;;;0.60;0.60;;;8.20;99.90;;;;;;5053246;27;20035;-87
2023/01/14 11:04:53;;;;;;;0.60;0.60;;;8.30;99.90;;;;;;5036599;27;20077;-87
2023/01/14 11:07:33;;;;;;;0.60;0.60;;;8.30;99.90;;;;;;5035849;27;20110;-89
2023/01/14 11:10:16;;;;;;;0.60;0.60;;;8.30;99.90;;;;;;5030613;27;20589;-86
2023/01/14 11:12:42;;;;;;;0.70;0.70;;;8.30;99.90;;;;;;5033065;27;20660;-87
2023/01/14 11:15:38;;;;;;;0.60;0.60;;;8.30;99.90;;;;;;5033094;27;20046;-86
2023/01/14 11:18:19;;;;;;;0.70;0.70;;;8.30;99.90;;;;;;5032089;27;20046;-88
2023/01/14 11:21:20;;;;;;;0.60;0.60;;;8.30;99.90;;;;;;5045223;27;20595;-92
2023/01/14 11:24:24;;;;;;;0.60;0.60;;;8.40;99.90;;;;;;5044640;27;20932;-86
2023/01/14 11:27:02;;;;;;;0.70;0.70;;;8.40;99.90;;;;;;5054667;27;20776;-90
2023/01/14 11:29:42;;;;;;;0.60;0.60;;;8.40;99.90;;;;;;5042367;27;20072;-93
2023/01/14 11:32:13;;;;;;;0.60;0.60;;;8.40;99.90;;;;;;5066020;27;20130;-89
2023/01/14 11:34:50;;;;;;;0.60;0.60;;;8.40;99.90;;;;;;5032170;27;20161;-87
2023/01/14 11:37:22;;;;;;;0.60;0.60;;;8.50;99.90;;;;;;5031991;27;20381;-87
2023/01/14 11:39:51;;;;;;;0.60;0.60;;;8.40;99.90;;;;;;5048553;27;20042;-87
2023/01/14 11:42:34;;;;;;;0.60;0.60;;;8.30;99.90;;;;;;5028420;27;20653;-87
2023/01/14 11:45:12;;;;;;;0.60;0.60;;;8.40;99.90;;;;;;5027890;27;20043;-87
2023/01/14 11:47:57;;;;;;;0.60;0.60;;;8.50;99.90;;;;;;5049619;27;20127;-90
2023/01/14 11:50:25;;;;;;;0.60;0.60;;;8.60;99.90;;;;;;5042607;27;20204;-87
2023/01/14 11:53:05;;;;;;;0.60;0.60;;;8.60;99.90;;;;;;5036977;27;20042;-87
2023/01/14 11:55:39;;;;;;;0.60;0.60;;;8.50;99.90;;;;;;5052370;27;20050;-87
2023/01/14 11:58:19;;;;;;;0.60;0.60;;;8.60;99.90;;;;;;5033331;27;21081;-93
2023/01/14 12:01:23;;;;;;;0.60;0.60;;;8.50;99.90;;;;;;5039337;27;20218;-88
2023/01/14 12:03:54;;;;;;;0.60;0.60;;;8.60;99.90;;;;;;5046727;27;20043;-89
2023/01/14 12:06:27;;;;;;;0.60;0.60;;;8.60;99.90;;;;;;5052210;27;20093;-86
2023/01/14 12:08:58;;;;;;;0.60;0.60;;;8.70;99.90;;;;;;5045002;27;20053;-86
2023/01/14 12:11:44;;;;;;;0.60;0.60;;;8.60;99.90;;;;;;5042248;27;20658;-88
2023/01/14 12:17:37;;;;;;;0.60;0.60;;;8.70;99.90;;;;;;5057798;27;21021;-90
2023/01/14 12:20:13;;;;;;;0.60;0.60;;;8.80;99.90;;;;;;5057105;27;20123;-88
2023/01/14 12:22:48;;;;;;;0.60;0.60;;;8.80;99.90;;;;;;5046379;27;20034;-88
2023/01/14 12:25:46;;;;;;;0.60;0.60;;;8.70;99.90;;;;;;5036703;28;20059;-89
2023/01/14 12:28:25;;;;;;;0.60;0.60;;;8.90;99.90;;;;;;5034349;28;20051;-87
2023/01/14 12:31:10;;;;;;;0.60;0.60;;;8.80;99.90;;;;;;5032668;28;20050;-93
2023/01/14 12:33:58;;;;;;;0.55;0.55;;;8.90;99.90;;;;;;5033437;28;20062;-87
2023/01/14 12:36:30;;;;;;;0.60;0.60;;;8.90;99.90;;;;;;5050227;28;20939;-91
2023/01/14 12:45:41;;;;;;;0.68;0.68;;;9.00;99.90;;;;;;5044734;28;20059;-93
2023/01/14 12:48:08;;;;;;;0.70;0.70;;;8.90;99.90;;;;;;5053755;28;20767;-92
2023/01/14 12:50:42;;;;;;;0.60;0.60;;;9.00;99.90;;;;;;5033674;28;20577;-90
2023/01/14 12:53:35;;;;;;;0.60;0.60;;;9.00;99.90;;;;;;5053167;27;20058;-87
2023/01/14 12:56:04;;;;;;;0.60;0.60;;;9.00;99.90;;;;;;5050401;27;20082;-86
2023/01/14 12:58:37;;;;;;;0.70;0.70;;;9.00;99.90;;;;;;5049726;27;20055;-90
2023/01/14 13:01:07;;;;;;;0.60;0.60;;;9.10;99.90;;;;;;5057695;27;20273;-89
2023/01/14 13:03:52;;;;;;;0.60;0.60;;;9.20;99.90;;;;;;5049374;27;20096;-86
2023/01/14 13:06:31;;;;;;;0.60;0.60;;;9.10;99.90;;;;;;5036856;27;20038;-89
2023/01/14 13:09:01;;;;;;;0.60;0.60;;;9.10;99.90;;;;;;5058020;27;20047;-91
2023/01/14 13:11:58;;;;;;;0.60;0.60;;;9.30;99.90;;;;;;5039091;27;20047;-86
2023/01/14 13:14:39;;;;;;;0.60;0.60;;;9.40;99.90;;;;;;5043385;27;20057;-89
2023/01/14 13:17:07;;;;;;;0.55;0.55;;;9.30;99.90;;;;;;5042889;27;20082;-91
2023/01/14 13:19:50;;;;;;;0.60;0.60;;;9.40;99.90;;;;;;5055975;27;20238;-88
2023/01/14 13:22:38;;;;;;;0.60;0.60;;;9.40;99.90;;;;;;5040893;27;20067;-89
2023/01/14 13:25:31;;;;;;;0.60;0.60;;;9.40;99.90;;;;;;5046451;27;20062;-90
2023/01/14 13:27:57;;;;;;;0.60;0.60;;;9.50;99.90;;;;;;5056717;27;20554;-89
2023/01/14 13:30:26;;;;;;;0.60;0.60;;;9.60;99.90;;;;;;5017256;27;20069;-92
2023/01/14 13:33:01;;;;;;;0.60;0.60;;;9.60;99.90;;;;;;5052564;27;20365;-87
2023/01/14 13:35:32;;;;;;;0.60;0.60;;;9.60;99.90;;;;;;5046509;27;20564;-86
2023/01/14 13:38:01;;;;;;;0.60;0.60;;;9.70;99.90;;;;;;5044980;27;20506;-91
2023/01/14 13:40:48;;;;;;;0.60;0.60;;;9.60;99.90;;;;;;5040640;27;20550;-90
2023/01/14 13:43:26;;;;;;;0.60;0.60;;;9.80;99.90;;;;;;5047098;27;20421;-87
2023/01/14 13:45:59;;;;;;;0.60;0.60;;;9.70;99.90;;;;;;5051427;27;20198;-88
2023/01/14 13:48:40;;;;;;;0.60;0.60;;;9.90;99.90;;;;;;5041789;27;21032;-90
2023/01/14 13:51:25;;;;;;;0.60;0.60;;;9.90;99.90;;;;;;5048672;27;20042;-89
2023/01/14 13:54:01;;;;;;;0.60;0.60;;;9.90;99.90;;;;;;5052968;27;20071;-89
2023/01/14 13:56:28;;;;;;;0.60;0.60;;;10.00;99.90;;;;;;5059928;27;20047;-91
2023/01/14 13:58:57;;;;;;;0.60;0.60;;;9.90;99.90;;;;;;5049217;27;20063;-88
2023/01/14 14:01:34;;;;;;;0.60;0.60;;;9.90;99.90;;;;;;5049936;27;20039;-95
2023/01/14 14:04:03;;;;;;;0.60;0.60;;;10.00;99.90;;;;;;5045942;27;21004;-90